createdAt,value
2023-01-17T00:02:01.920Z,97064.13
2023-01-17T00:04:48.701Z,97064.13
2023-01-17T00:07:40.657Z,97061.19
2023-01-17T00:10:11.856Z,97062.50
2023-01-17T00:12:39.464Z,97067.53
2023-01-17T00:15:08.573Z,97074.13
2023-01-17T00:17:36.095Z,97073.28
2023-01-17T00:20:23.367Z,97069.00
2023-01-17T00:23:08.422Z,97067.41
2023-01-17T00:25:56.076Z,97065.81
2023-01-17T00:28:23.103Z,97078.00
2023-01-17T00:30:50.048Z,97082.25
2023-01-17T00:33:16.747Z,97079.66
2023-01-17T00:35:44.799Z,97073.84
2023-01-17T00:38:13.487Z,97068.59
2023-01-17T00:40:41.448Z,97080.81
2023-01-17T00:43:27.608Z,97075.25
2023-01-17T00:46:13.483Z,97083.47
2023-01-17T00:48:59.209Z,97090.34
2023-01-17T00:51:46.488Z,97092.75
2023-01-17T00:54:31.945Z,97090.38
2023-01-17T00:57:17.407Z,97102.59
2023-01-17T01:00:03.193Z,97115.81
2023-01-17T01:02:48.298Z,97121.66
2023-01-17T01:05:34.158Z,97116.34
2023-01-17T01:08:21.525Z,97124.31
2023-01-17T01:11:07.772Z,97141.00
2023-01-17T01:13:53.220Z,97140.47
2023-01-17T01:16:38.836Z,97142.81
2023-01-17T01:19:24.883Z,97143.31
2023-01-17T01:22:10.326Z,97142.69
2023-01-17T01:24:56.659Z,97148.31
2023-01-17T01:27:41.962Z,97152.25
2023-01-17T01:30:28.263Z,97149.84
2023-01-17T01:33:13.403Z,97159.66
2023-01-17T01:35:42.063Z,97161.75
2023-01-17T01:38:09.771Z,97163.03
2023-01-17T01:40:44.439Z,97163.84
2023-01-17T01:43:17.457Z,97183.41
2023-01-17T01:45:47.832Z,97172.25
2023-01-17T01:48:34.743Z,97181.78
2023-01-17T01:51:04.844Z,97190.78
2023-01-17T01:53:34.032Z,97191.34
2023-01-17T01:56:03.599Z,97187.59
2023-01-17T01:58:33.912Z,97195.53
2023-01-17T02:01:01.689Z,97196.03
2023-01-17T02:03:31.542Z,97201.31
2023-01-17T02:06:03.679Z,97203.44
2023-01-17T02:08:32.093Z,97210.81
2023-01-17T02:10:59.757Z,97217.31
2023-01-17T02:13:29.275Z,97226.50
2023-01-17T02:16:01.989Z,97225.44
2023-01-17T02:18:37.068Z,97238.81
2023-01-17T02:21:16.282Z,97252.25
2023-01-17T02:24:29.768Z,97250.59
2023-01-17T02:27:02.708Z,97249.78
2023-01-17T02:30:12.108Z,97254.53
2023-01-17T02:32:50.724Z,97266.22
2023-01-17T02:35:28.131Z,97271.25
2023-01-17T02:38:00.221Z,97281.34
2023-01-17T02:40:30.630Z,97286.09
2023-01-17T02:43:02.843Z,97297.44
2023-01-17T02:45:30.634Z,97300.84
2023-01-17T02:47:59.760Z,97296.56
2023-01-17T02:50:33.717Z,97310.31
2023-01-17T02:53:13.818Z,97324.50
2023-01-17T02:55:51.555Z,97341.13
2023-01-17T02:58:28.499Z,97341.31
2023-01-17T03:01:04.224Z,97356.03
2023-01-17T03:03:36.031Z,97349.66
2023-01-17T03:06:11.486Z,97355.97
2023-01-17T03:08:40.550Z,97356.16
2023-01-17T03:11:09.533Z,97370.13
2023-01-17T03:13:37.878Z,97374.72
2023-01-17T03:16:08.423Z,97379.31
2023-01-17T03:18:37.869Z,97381.31
2023-01-17T03:21:05.601Z,97379.78
2023-01-17T03:23:33.258Z,97389.78
2023-01-17T03:26:00.928Z,97383.72
2023-01-17T03:28:28.558Z,97384.00
2023-01-17T03:30:56.197Z,97388.25
2023-01-17T03:33:24.394Z,97397.56
2023-01-17T03:35:54.716Z,97409.81
2023-01-17T03:38:22.283Z,97403.47
2023-01-17T03:40:49.840Z,97415.19
2023-01-17T03:43:17.309Z,97419.31
2023-01-17T03:45:45.120Z,97423.78
2023-01-17T03:48:12.893Z,97444.63
2023-01-17T03:50:40.458Z,97448.22
2023-01-17T03:53:09.552Z,97450.44
2023-01-17T03:55:37.108Z,97459.66
2023-01-17T03:58:04.662Z,97462.28
2023-01-17T04:00:32.366Z,97468.13
2023-01-17T04:03:00.096Z,97468.13
2023-01-17T04:05:27.813Z,97474.34
2023-01-17T04:07:55.514Z,97478.03
2023-01-17T04:10:24.586Z,97475.97
2023-01-17T04:12:52.185Z,97484.91
2023-01-17T04:15:19.886Z,97485.47
2023-01-17T04:17:47.663Z,97488.09
2023-01-17T04:20:18.176Z,97486.53
2023-01-17T04:22:45.856Z,97492.34
2023-01-17T04:25:13.583Z,97488.09
2023-01-17T04:27:42.629Z,97492.59
2023-01-17T04:30:11.895Z,97499.63
2023-01-17T04:32:39.589Z,97500.09
2023-01-17T04:35:09.543Z,97504.56
2023-01-17T04:37:37.609Z,97507.56
2023-01-17T04:40:05.906Z,97509.84
2023-01-17T04:42:33.539Z,97502.63
2023-01-17T04:45:02.495Z,97510.47
2023-01-17T04:47:30.069Z,97517.38
2023-01-17T04:49:57.648Z,97522.44
2023-01-17T04:52:25.451Z,97514.41
2023-01-17T04:54:53.601Z,97509.59
2023-01-17T04:57:21.203Z,97520.97
2023-01-17T04:59:48.919Z,97523.34
2023-01-17T05:02:18.273Z,97523.34
2023-01-17T05:04:46.097Z,97519.69
2023-01-17T05:07:13.824Z,97526.09
2023-01-17T05:09:41.540Z,97533.31
2023-01-17T05:12:09.172Z,97531.56
2023-01-17T05:14:36.894Z,97532.59
2023-01-17T05:17:04.662Z,97537.97
2023-01-17T05:19:33.613Z,97539.59
2023-01-17T05:22:04.130Z,97544.63
2023-01-17T05:24:32.282Z,97552.34
2023-01-17T05:27:03.950Z,97546.50
2023-01-17T05:29:31.635Z,97553.81
2023-01-17T05:31:59.397Z,97557.41
2023-01-17T05:34:27.021Z,97555.22
2023-01-17T05:36:56.916Z,97559.94
2023-01-17T05:39:24.730Z,97561.91
2023-01-17T05:41:52.302Z,97567.41
2023-01-17T05:44:19.864Z,97581.63
2023-01-17T05:46:47.572Z,97579.69
2023-01-17T05:49:15.138Z,97597.34
2023-01-17T05:51:42.810Z,97604.94
2023-01-17T05:54:11.759Z,97605.25
2023-01-17T05:56:39.353Z,97604.69
2023-01-17T05:59:06.910Z,97603.66
2023-01-17T06:01:34.661Z,97605.75
2023-01-17T06:04:02.373Z,97609.03
2023-01-17T06:06:29.930Z,97613.53
2023-01-17T06:08:57.467Z,97616.97
2023-01-17T06:11:26.798Z,97617.91
2023-01-17T06:13:54.319Z,97628.47
2023-01-17T06:16:21.932Z,97627.66
2023-01-17T06:18:49.499Z,97621.47
2023-01-17T06:21:20.287Z,97625.03
2023-01-17T06:23:47.871Z,97629.97
2023-01-17T06:26:15.419Z,97628.44
2023-01-17T06:28:44.604Z,97634.53
2023-01-17T06:31:12.707Z,97648.53
2023-01-17T06:33:40.268Z,97651.44
2023-01-17T06:36:08.226Z,97655.09
2023-01-17T06:38:35.740Z,97656.34
2023-01-17T06:41:05.610Z,97653.81
2023-01-17T06:43:34.292Z,97660.94
2023-01-17T06:46:03.277Z,97663.56
2023-01-17T06:48:30.991Z,97668.28
2023-01-17T06:50:59.112Z,97671.38
2023-01-17T06:53:26.803Z,97668.41
2023-01-17T06:55:57.482Z,97677.81
2023-01-17T06:58:25.152Z,97673.56
2023-01-17T07:00:52.796Z,97685.63
2023-01-17T07:03:24.302Z,97684.88
2023-01-17T07:05:53.191Z,97688.47
2023-01-17T07:08:21.265Z,97690.53
2023-01-17T07:10:49.512Z,97697.28
2023-01-17T07:13:17.105Z,97709.66
2023-01-17T07:15:44.855Z,97712.88
2023-01-17T07:18:12.602Z,97715.53
2023-01-17T07:20:44.854Z,97720.69
2023-01-17T07:23:12.598Z,97720.69
2023-01-17T07:25:40.142Z,97714.59
2023-01-17T07:28:07.891Z,97722.31
2023-01-17T07:30:36.619Z,97723.31
2023-01-17T07:33:04.467Z,97730.78
2023-01-17T07:35:32.203Z,97739.28
2023-01-17T07:38:01.084Z,97736.88
2023-01-17T07:40:28.677Z,97742.16
2023-01-17T07:43:01.496Z,97739.28
2023-01-17T07:45:29.283Z,97741.44
2023-01-17T07:47:58.003Z,97749.59
2023-01-17T07:50:25.696Z,97743.16
2023-01-17T07:52:53.454Z,97738.78
2023-01-17T07:55:22.843Z,97748.16
2023-01-17T07:57:51.621Z,97744.94
2023-01-17T08:00:19.980Z,97740.38
2023-01-17T08:02:47.659Z,97741.16
2023-01-17T08:05:15.602Z,97744.50
2023-01-17T08:07:43.364Z,97740.22
2023-01-17T08:10:13.255Z,97749.78
2023-01-17T08:12:42.306Z,97746.13
2023-01-17T08:15:11.889Z,97745.19
2023-01-17T08:17:39.615Z,97747.50
2023-01-17T08:20:07.470Z,97743.72
2023-01-17T08:22:35.051Z,97745.63
2023-01-17T08:25:02.961Z,97751.84
2023-01-17T08:27:30.508Z,97752.66
2023-01-17T08:29:59.717Z,97757.63
2023-01-17T08:32:27.323Z,97751.22
2023-01-17T08:34:56.652Z,97758.75
2023-01-17T08:37:24.427Z,97761.34
2023-01-17T08:39:51.919Z,97758.00
2023-01-17T08:42:19.426Z,97756.84
2023-01-17T08:44:46.997Z,97760.19
2023-01-17T08:47:16.115Z,97759.03
2023-01-17T08:49:44.265Z,97764.16
2023-01-17T08:52:14.396Z,97760.75
2023-01-17T08:54:41.975Z,97764.41
2023-01-17T08:57:10.427Z,97762.25
2023-01-17T08:59:37.959Z,97773.59
2023-01-17T09:02:14.896Z,97770.75
2023-01-17T09:04:46.305Z,97773.00
2023-01-17T09:07:14.289Z,97767.28
2023-01-17T09:09:41.888Z,97770.56
2023-01-17T09:12:09.690Z,97773.25
2023-01-17T09:14:37.414Z,97782.91
2023-01-17T09:17:05.822Z,97781.31
2023-01-17T09:19:33.830Z,97781.31
2023-01-17T09:22:02.711Z,97792.13
2023-01-17T09:24:31.050Z,97785.47
2023-01-17T09:26:58.711Z,97801.34
2023-01-17T09:29:26.450Z,97800.50
2023-01-17T09:31:54.000Z,97800.84
2023-01-17T09:34:21.780Z,97808.81
2023-01-17T09:36:49.254Z,97809.59
2023-01-17T09:39:18.297Z,97810.50
2023-01-17T09:41:50.221Z,97817.38
2023-01-17T09:44:24.777Z,97809.47
2023-01-17T09:46:53.897Z,97822.47
2023-01-17T09:49:33.632Z,97818.06
2023-01-17T09:52:01.433Z,97828.53
2023-01-17T09:54:36.465Z,97835.06
2023-01-17T09:57:08.149Z,97834.53
2023-01-17T09:59:45.426Z,97832.38
2023-01-17T10:02:26.638Z,97832.25
2023-01-17T10:05:08.629Z,97838.44
2023-01-17T10:07:43.139Z,97847.41
2023-01-17T10:10:31.102Z,97844.03
2023-01-17T10:13:02.644Z,97843.69
2023-01-17T10:15:38.895Z,97845.84
2023-01-17T10:18:29.508Z,97843.66
2023-01-17T10:21:04.678Z,97849.50
2023-01-17T10:23:41.836Z,97849.31
2023-01-17T10:26:12.598Z,97848.41
2023-01-17T10:28:46.865Z,97851.88
2023-01-17T10:31:17.949Z,97845.91
2023-01-17T10:33:48.843Z,97846.84
2023-01-17T10:36:20.763Z,97848.66
2023-01-17T10:38:49.892Z,97843.16
2023-01-17T10:41:23.753Z,97844.66
2023-01-17T10:43:59.010Z,97841.78
2023-01-17T10:46:29.485Z,97838.56
2023-01-17T10:48:58.262Z,97840.63
2023-01-17T10:51:43.937Z,97840.84
2023-01-17T10:54:17.986Z,97845.00
2023-01-17T10:56:47.269Z,97841.84
2023-01-17T10:59:21.107Z,97829.88
2023-01-17T11:01:51.001Z,97838.97
2023-01-17T11:04:22.056Z,97838.28
2023-01-17T11:07:11.231Z,97849.56
2023-01-17T11:09:40.155Z,97847.63
2023-01-17T11:12:18.724Z,97843.72
2023-01-17T11:14:57.988Z,97843.69
2023-01-17T11:17:27.496Z,97838.31
2023-01-17T11:19:55.653Z,97831.91
2023-01-17T11:22:24.904Z,97836.63
2023-01-17T11:24:54.947Z,97838.09
2023-01-17T11:27:28.557Z,97840.69
2023-01-17T11:30:16.862Z,97844.28
2023-01-17T11:32:53.219Z,97837.56
2023-01-17T11:35:22.299Z,97830.50
2023-01-17T11:37:52.827Z,97831.59
2023-01-17T11:40:25.441Z,97830.06
2023-01-17T11:43:19.612Z,97827.34
2023-01-17T11:45:48.823Z,97838.72
2023-01-17T11:48:18.341Z,97834.50
2023-01-17T11:50:48.771Z,97837.06
2023-01-17T11:53:20.566Z,97836.44
2023-01-17T11:55:59.294Z,97844.16
2023-01-17T11:58:29.328Z,97839.59
2023-01-17T12:01:02.255Z,97835.97
2023-01-17T12:03:42.388Z,97838.13
2023-01-17T12:06:16.496Z,97838.22
2023-01-17T12:08:58.055Z,97832.19
2023-01-17T12:11:29.613Z,97830.22
2023-01-17T12:14:03.911Z,97833.84
2023-01-17T12:16:44.525Z,97834.88
2023-01-17T12:19:26.151Z,97830.31
2023-01-17T12:22:03.171Z,97835.22
2023-01-17T12:24:52.739Z,97827.03
2023-01-17T12:27:24.880Z,97830.06
2023-01-17T12:30:04.507Z,97819.47
2023-01-17T12:32:43.258Z,97818.31
2023-01-17T12:35:15.484Z,97815.75
2023-01-17T12:37:45.110Z,97825.19
2023-01-17T12:40:21.113Z,97823.13
2023-01-17T12:42:52.426Z,97816.75
2023-01-17T12:45:25.049Z,97815.41
2023-01-17T12:47:59.696Z,97817.00
2023-01-17T12:50:30.710Z,97809.31
2023-01-17T12:53:04.586Z,97817.97
2023-01-17T12:55:40.056Z,97829.91
2023-01-17T12:58:14.061Z,97823.16
2023-01-17T13:00:44.167Z,97817.84
2023-01-17T13:03:23.891Z,97824.81
2023-01-17T13:05:52.399Z,97834.81
2023-01-17T13:08:24.698Z,97835.50
2023-01-17T13:10:55.812Z,97849.16
2023-01-17T13:13:25.765Z,97855.75
2023-01-17T13:15:57.075Z,97846.56
2023-01-17T13:18:26.924Z,97851.69
2023-01-17T13:21:06.233Z,97845.44
2023-01-17T13:23:47.039Z,97841.06
2023-01-17T13:26:22.311Z,97846.03
2023-01-17T13:28:54.965Z,97854.88
2023-01-17T13:31:31.543Z,97853.56
2023-01-17T13:34:10.702Z,97847.19
2023-01-17T13:36:50.472Z,97866.03
2023-01-17T13:39:32.059Z,97868.25
2023-01-17T13:42:10.544Z,97865.94
2023-01-17T13:44:38.349Z,97861.88
2023-01-17T13:47:31.006Z,97853.75
2023-01-17T13:49:58.721Z,97846.72
2023-01-17T13:52:35.839Z,97850.91
2023-01-17T13:55:05.262Z,97848.19
2023-01-17T13:57:40.548Z,97851.44
2023-01-17T14:00:49.707Z,97849.81
2023-01-17T14:03:57.585Z,97852.41
2023-01-17T14:06:36.411Z,97855.59
2023-01-17T14:09:06.493Z,97852.81
2023-01-17T14:11:35.576Z,97853.19
2023-01-17T14:14:42.929Z,97858.16
2023-01-17T14:17:47.135Z,97846.13
2023-01-17T14:20:47.924Z,97854.38
2023-01-17T14:23:28.174Z,97839.53
2023-01-17T14:25:59.214Z,97837.78
2023-01-17T14:28:31.328Z,97865.22
2023-01-17T14:31:00.136Z,97862.19
2023-01-17T14:33:29.763Z,97853.94
2023-01-17T14:36:00.235Z,97855.16
2023-01-17T14:38:29.210Z,97861.13
2023-01-17T14:40:58.827Z,97855.13
2023-01-17T14:43:28.703Z,97864.53
2023-01-17T14:46:00.245Z,97876.75
2023-01-17T14:48:28.033Z,97877.44
2023-01-17T14:50:59.998Z,97872.59
2023-01-17T14:53:28.968Z,97880.97
2023-01-17T14:56:01.643Z,97885.03
2023-01-17T14:58:30.962Z,97876.28
2023-01-17T15:01:01.068Z,97897.50
2023-01-17T15:03:30.016Z,97897.16
2023-01-17T15:06:06.369Z,97897.56
2023-01-17T15:08:36.392Z,97899.06
2023-01-17T15:11:06.262Z,97901.94
2023-01-17T15:13:44.426Z,97894.13
2023-01-17T15:16:19.577Z,97883.84
2023-01-17T15:18:47.597Z,97888.19
2023-01-17T15:21:19.202Z,97890.03
2023-01-17T15:23:49.210Z,97897.19
2023-01-17T15:26:18.127Z,97893.72
2023-01-17T15:28:46.145Z,97898.16
2023-01-17T15:31:15.684Z,97896.00
2023-01-17T15:33:45.420Z,97893.47
2023-01-17T15:36:25.827Z,97893.31
2023-01-17T15:38:57.702Z,97895.59
2023-01-17T15:41:25.900Z,97892.69
2023-01-17T15:43:57.626Z,97884.88
2023-01-17T15:46:30.801Z,97892.69
2023-01-17T15:49:17.367Z,97890.53
2023-01-17T15:51:52.471Z,97882.03
2023-01-17T15:54:37.445Z,97896.44
2023-01-17T15:57:20.700Z,97889.69
2023-01-17T15:59:53.011Z,97893.00
2023-01-17T16:02:49.839Z,97879.00
2023-01-17T16:05:43.368Z,97885.00
2023-01-17T16:08:32.700Z,97881.63
2023-01-17T16:11:03.057Z,97887.50
2023-01-17T16:13:32.223Z,97887.06
2023-01-17T16:16:16.988Z,97899.50
2023-01-17T16:18:46.503Z,97897.03
2023-01-17T16:21:27.915Z,97899.34
2023-01-17T16:23:57.828Z,97899.03
2023-01-17T16:26:25.643Z,97898.72
2023-01-17T16:28:53.089Z,97903.66
2023-01-17T16:31:20.879Z,97902.50
2023-01-17T16:33:50.708Z,97901.75
2023-01-17T16:36:19.654Z,97899.28
2023-01-17T16:38:50.173Z,97908.31
2023-01-17T16:41:19.216Z,97909.41
2023-01-17T16:43:48.143Z,97909.47
2023-01-17T16:46:15.834Z,97917.47
2023-01-17T16:48:43.322Z,97919.69
2023-01-17T16:51:10.827Z,97908.84
2023-01-17T16:53:38.414Z,97916.09
2023-01-17T16:56:13.460Z,97919.72
2023-01-17T16:58:42.717Z,97919.53
2023-01-17T17:01:11.397Z,97922.00
2023-01-17T17:03:38.932Z,97919.19
2023-01-17T17:06:07.136Z,97928.53
2023-01-17T17:08:35.544Z,97926.13
2023-01-17T17:11:13.286Z,97928.94
2023-01-17T17:13:43.514Z,97928.00
2023-01-17T17:16:16.494Z,97921.66
2023-01-17T17:18:45.198Z,97932.28
2023-01-17T17:21:12.894Z,97934.22
2023-01-17T17:23:40.444Z,97930.81
2023-01-17T17:26:08.321Z,97938.03
2023-01-17T17:28:36.671Z,97937.44
2023-01-17T17:31:08.181Z,97943.59
2023-01-17T17:33:36.971Z,97935.28
2023-01-17T17:36:10.114Z,97943.22
2023-01-17T17:38:38.486Z,97944.28
2023-01-17T17:41:07.534Z,97950.34
2023-01-17T17:43:40.437Z,97947.72
2023-01-17T17:46:09.721Z,97949.53
2023-01-17T17:48:37.740Z,97950.56
2023-01-17T17:51:05.832Z,97956.63
2023-01-17T17:53:33.815Z,97955.00
2023-01-17T17:56:05.924Z,97955.81
2023-01-17T17:58:34.972Z,97955.81
2023-01-17T18:01:03.967Z,97961.69
2023-01-17T18:03:33.149Z,97963.91
2023-01-17T18:06:05.384Z,97971.19
2023-01-17T18:08:33.815Z,97967.75
2023-01-17T18:11:02.224Z,97964.72
2023-01-17T18:13:30.723Z,97963.13
2023-01-17T18:16:07.760Z,97970.38
2023-01-17T18:18:38.242Z,97962.69
2023-01-17T18:21:10.347Z,97962.69
2023-01-17T18:23:39.150Z,97963.09
2023-01-17T18:26:06.925Z,97958.25
2023-01-17T18:28:34.397Z,97960.25
2023-01-17T18:31:08.468Z,97965.91
2023-01-17T18:33:39.499Z,97970.16
2023-01-17T18:36:08.763Z,97981.28
2023-01-17T18:38:39.641Z,97980.06
2023-01-17T18:41:08.069Z,97986.31
2023-01-17T18:43:36.121Z,97990.97
2023-01-17T18:46:04.051Z,97987.94
2023-01-17T18:48:31.670Z,97983.69
2023-01-17T18:51:02.796Z,97995.38
2023-01-17T18:53:31.287Z,97986.09
2023-01-17T18:56:00.123Z,97992.28
2023-01-17T18:58:28.766Z,98000.59
2023-01-17T19:00:56.654Z,97999.44
2023-01-17T19:03:28.651Z,98005.84
2023-01-17T19:05:56.122Z,97995.78
2023-01-17T19:08:25.335Z,98000.41
2023-01-17T19:10:52.800Z,98001.66
2023-01-17T19:13:20.280Z,98014.31
2023-01-17T19:15:48.223Z,98002.41
2023-01-17T19:18:16.017Z,98015.91
2023-01-17T19:20:43.647Z,98014.31
2023-01-17T19:23:11.177Z,98021.19
2023-01-17T19:25:40.073Z,98017.97
2023-01-17T19:28:08.314Z,98021.41
2023-01-17T19:30:39.047Z,98016.78
2023-01-17T19:33:06.804Z,98016.81
2023-01-17T19:35:37.421Z,98022.28
2023-01-17T19:38:05.192Z,98023.66
2023-01-17T19:40:32.736Z,98015.59
2023-01-17T19:43:01.766Z,98024.03
2023-01-17T19:45:29.374Z,98020.03
2023-01-17T19:47:57.417Z,98023.69
2023-01-17T19:50:25.321Z,98019.25
2023-01-17T19:52:53.240Z,98021.66
2023-01-17T19:55:25.724Z,98020.41
2023-01-17T19:57:53.392Z,98016.38
2023-01-17T20:00:29.953Z,98017.56
2023-01-17T20:02:57.897Z,98015.13
2023-01-17T20:05:25.744Z,98011.69
2023-01-17T20:07:53.343Z,98020.00
2023-01-17T20:10:20.962Z,98021.63
2023-01-17T20:12:48.670Z,98028.19
2023-01-17T20:15:16.483Z,98029.16
2023-01-17T20:17:45.656Z,98039.22
2023-01-17T20:20:13.726Z,98045.59
2023-01-17T20:22:42.468Z,98040.41
2023-01-17T20:25:10.941Z,98044.44
2023-01-17T20:27:38.550Z,98037.22
2023-01-17T20:30:19.238Z,98039.25
2023-01-17T20:32:49.349Z,98051.69
2023-01-17T20:35:18.049Z,98045.91
2023-01-17T20:37:45.539Z,98046.09
2023-01-17T20:40:13.885Z,98051.09
2023-01-17T20:42:41.563Z,98054.69
2023-01-17T20:45:11.202Z,98059.56
2023-01-17T20:47:38.863Z,98056.09
2023-01-17T20:50:09.695Z,98062.34
2023-01-17T20:52:37.207Z,98061.97
2023-01-17T20:55:08.249Z,98062.78
2023-01-17T20:57:36.001Z,98063.78
2023-01-17T21:00:03.599Z,98072.81
2023-01-17T21:02:31.186Z,98067.56
2023-01-17T21:04:59.906Z,98070.41
2023-01-17T21:07:28.787Z,98071.69
2023-01-17T21:09:57.433Z,98078.97
2023-01-17T21:12:24.955Z,98077.44
2023-01-17T21:14:53.770Z,98078.50
2023-01-17T21:17:21.345Z,98088.16
2023-01-17T21:19:49.028Z,98078.75
2023-01-17T21:22:16.968Z,98089.09
2023-01-17T21:24:46.019Z,98074.72
2023-01-17T21:27:13.690Z,98080.19
2023-01-17T21:29:41.221Z,98077.41
2023-01-17T21:32:09.004Z,98079.44
2023-01-17T21:34:36.520Z,98076.16
2023-01-17T21:37:04.101Z,98086.47
2023-01-17T21:39:31.737Z,98086.50
2023-01-17T21:42:00.671Z,98087.47
2023-01-17T21:44:28.344Z,98086.31
2023-01-17T21:46:56.660Z,98093.25
2023-01-17T21:49:24.844Z,98087.34
2023-01-17T21:52:10.296Z,98091.22
2023-01-17T21:54:55.522Z,98086.84
2023-01-17T21:57:42.278Z,98092.59
2023-01-17T22:00:12.478Z,98094.72
2023-01-17T22:02:40.886Z,98091.25
2023-01-17T22:05:09.355Z,98101.72
2023-01-17T22:07:39.035Z,98093.25
2023-01-17T22:10:07.710Z,98098.72
2023-01-17T22:12:36.804Z,98101.88
2023-01-17T22:15:04.844Z,98101.47
2023-01-17T22:17:32.391Z,98100.16
2023-01-17T22:20:00.050Z,98095.78
2023-01-17T22:22:27.752Z,98096.09
2023-01-17T22:24:56.550Z,98111.25
2023-01-17T22:27:24.077Z,98102.38
2023-01-17T22:29:53.152Z,98097.00
2023-01-17T22:32:20.878Z,98100.47
2023-01-17T22:34:48.470Z,98096.88
2023-01-17T22:37:16.070Z,98095.66
2023-01-17T22:39:43.824Z,98098.53
2023-01-17T22:42:13.236Z,98100.38
2023-01-17T22:44:40.769Z,98095.44
2023-01-17T22:47:09.663Z,98106.16
2023-01-17T22:49:37.204Z,98103.94
2023-01-17T22:52:04.904Z,98121.56
2023-01-17T22:54:32.543Z,98119.16
2023-01-17T22:57:00.228Z,98122.38
2023-01-17T22:59:27.901Z,98118.38
2023-01-17T23:01:55.559Z,98121.13
2023-01-17T23:04:24.590Z,98120.75
2023-01-17T23:06:52.120Z,98119.50
2023-01-17T23:09:19.920Z,98132.84
2023-01-17T23:11:50.888Z,98135.69
2023-01-17T23:14:20.734Z,98129.16
2023-01-17T23:17:07.646Z,98131.78
2023-01-17T23:19:37.765Z,98132.72
2023-01-17T23:22:24.689Z,98139.69
2023-01-17T23:24:53.470Z,98131.78
2023-01-17T23:27:41.767Z,98134.22
2023-01-17T23:30:11.712Z,98131.09
2023-01-17T23:32:39.772Z,98141.09
2023-01-17T23:35:09.608Z,98143.06
2023-01-17T23:37:54.794Z,98140.63
2023-01-17T23:40:22.618Z,98136.59
2023-01-17T23:43:08.142Z,98133.59
2023-01-17T23:45:37.001Z,98125.50
2023-01-17T23:48:05.783Z,98137.97
2023-01-17T23:50:34.879Z,98127.34
2023-01-17T23:53:07.005Z,98126.34
2023-01-17T23:55:36.507Z,98139.00
2023-01-17T23:58:04.688Z,98135.94
